Date,TemperatureHighF,TemperatureAvgF,TemperatureLowF,DewpointHighF,DewpointAvgF,DewpointLowF,HumidityHigh,HumidityAvg,HumidityLow,PressureMaxIn,PressureMinIn,WindSpeedMaxMPH,WindSpeedAvgMPH,GustSpeedMaxMPH,PrecipitationSumIn
2013-4-1,34,28,24,28,15,10,81,58,46,0.00,40.00,13,9,0,0.01
2013-4-2,36,29,20,19,14,10,84,55,34,0.00,40.00,13,7,0,0.00
2013-4-3,43,31,20,18,15,12,78,53,27,0.00,40.00,8,4,0,0.00
2013-4-4,50,36,23,22,18,16,83,52,29,0.00,40.00,12,6,0,0.00
2013-4-5,47,39,28,26,19,13,72,47,24,0.00,40.00,8,4,0,0.00
2013-4-6,56,43,33,31,21,13,61,43,30,0.00,40.00,16,10,0,0.01
2013-4-7,52,43,34,45,35,28,89,72,55,0.00,40.00,14,8,0,0.20
2013-4-8,49,39,34,46,35,28,95,85,75,0.00,40.00,13,8,0,0.31
2013-4-9,45,40,38,44,39,36,96,95,92,0.00,40.00,8,5,0,2.02
2013-4-10,41,39,37,39,36,31,93,87,77,0.00,40.00,13,9,0,0.41
2013-4-11,36,35,33,32,31,28,89,85,70,0.00,40.00,18,14,0,1.08
2013-4-12,38,35,32,35,32,30,94,89,80,0.00,40.00,14,8,0,0.18
2013-4-13,37,35,33,33,28,24,94,78,58,0.00,40.00,14,9,0,0.08
2013-4-14,45,36,29,37,31,26,91,80,67,0.00,40.00,15,6,0,0.06
2013-4-15,61,51,42,52,43,33,92,74,66,0.00,40.00,12,8,0,0.65
2013-4-16,51,45,38,44,35,32,94,71,48,0.00,40.00,10,7,0,0.28
2013-4-17,48,42,38,39,33,29,92,70,53,0.00,40.00,13,8,0,0.93
2013-4-18,60,50,42,57,48,39,95,92,80,0.00,40.00,13,7,0,1.92
2013-4-19,59,39,34,55,32,23,90,75,64,0.00,40.00,18,14,0,0.11
2013-4-20,36,31,26,24,18,14,78,59,46,0.00,40.00,14,9,0,0.00
2013-4-21,50,36,25,28,20,16,70,53,34,0.00,40.00,10,6,0,0.00
2013-4-22,63,48,34,30,27,26,74,47,25,0.00,40.00,8,6,0,0.00
2013-4-23,60,49,39,47,39,28,93,68,41,0.00,40.00,9,6,0,0.52
2013-4-24,45,37,32,36,28,23,93,71,42,0.00,40.00,13,8,0,0.12
2013-4-25,47,40,34,35,30,24,91,66,42,0.00,40.00,13,7,0,0.07
2013-4-26,63,47,34,39,31,27,76,56,34,0.00,40.00,11,5,0,0.00
2013-4-27,69,56,45,43,37,-100,75,54,28,0.00,40.00,7,4,0,0.00
2013-4-28,63,56,52,50,43,35,86,60,51,0.00,40.00,9,5,0,0.00
2013-4-29,68,56,44,52,49,43,95,79,54,0.00,40.00,8,3,0,0.00
2013-4-30,76,70,56,58,56,50,86,62,51,0.00,40.00,12,10,0,0.05